AirNav   Air Wisconsin Up To $57,000 Bonus
 
 270 users online  

20CL Mysterious Valley Airport
Pope Valley, California, USA

GOING TO POPE VALLEY?


FAA INFORMATION EFFECTIVE 05 DECEMBER 2019

Location

FAA Identifier: 20CL
Lat/Long: 38-44-57.6490N 122-22-02.9220W
38-44.960817N 122-22.048700W
38.7493469,-122.3674783
(estimated)
Elevation: 1410 ft. / 430 m (estimated)
Variation: 16E (1985)
From city: 9 miles N of POPE VALLEY, CA
Time zone: UTC -8 (UTC -7 during Daylight Saving Time)
Zip code: 94558

Airport Operations

Airport use: Private use. Permission required prior to landing
Activation date: 05/1971
Control tower: no
ARTCC: OAKLAND CENTER
FSS: OAKLAND FLIGHT SERVICE STATION
Attendance: IREG
Wind indicator: yes
Segmented circle: no

Nearby radio navigation aids

VOR radial/distance  VOR name  Freq  Var
ILAr201/25.0WILLIAMS VORTAC114.4018E
STSr039/25.3SANTA ROSA VOR/DME113.0016E
SGDr343/34.2SCAGGS ISLAND VORTAC112.1017E

Airport Services

Airframe service: NONE
Powerplant service: NONE

Runway Information

Runway 14/32

Dimensions: 3500 x 30 ft. / 1067 x 9 m
Surface: gravel
RUNWAY 14  RUNWAY 32
Traffic pattern: leftleft

Airport Ownership and Management from official FAA records

Ownership: Privately-owned
Owner: PERRY CLARK
AMIZETTA WINERY 1099 GREENFIELD RD
ST HELENA, CA 94574

Airport Operational Statistics

Aircraft based on the field: 2
Single engine airplanes: 2
    

Additional Remarks

HAZARDOUS STRIP-SURROUNDED BY HILLS, 95 FT FENCE TO FENCE.
FOR CD CTC OAKLAND ARTCC AT 510-745-3380.

Instrument Procedures

There are no published instrument procedures at 20CL.

Some nearby airports with instrument procedures:

O41 - Watts-Woodland Airport (24 nm E)
KSTS - Charles M Schulz - Sonoma County Airport (25 nm SW)
KDWA - Yolo County Airport (26 nm SE)
1O2 - Lampson Field Airport (29 nm NW)
O60 - Cloverdale Municipal Airport (29 nm W)
 
Loc | Ops | Rwys | IFR | FBO | Links
Com | Nav | Svcs | Stats | Notes

Sonoma Jet Center
 
Area around 20CL (Mysterious Valley Airport)
 
Road maps at: MapQuest Bing Google
 
Aerial photo
WARNING: Photo may not be current or correct
Aerial photo of 20CL (Mysterious Valley Airport)
Do you have a better or more recent aerial photo of Mysterious Valley Airport that you would like to share? If so, please send us your photo.

 
Sectional chart

 
Airport distance calculator
Flying to Mysterious Valley Airport? Find the distance to fly.

From to 20CL

Sunrise and sunset
Times for 15-Dec-2019
 Local
(UTC-8)
 Zulu
(UTC)
Morning civil twilight06:5214:52
Sunrise07:2215:22
Sunset16:4800:48
Evening civil twilight17:1801:18

Current date and time
Zulu (UTC)  15-Dec-2019 11:25:54
Local (UTC-8)  15-Dec-2019 03:25:54
 
METAR
KSTS 
26nm SW 
707-573-8393
151053Z AUTO 00000KT 8SM SCT039 03/03 A3012 RMK AO2 SLP194 T00280028
KVCB 
29nm SE 
151053Z AUTO 32013G20KT 10SM CLR 09/01 A3009 RMK AO2 SLP188 T00940011
KEDU 
30nm SE 
151055Z AUTO 00000KT 10SM CLR 04/03 A3009 RMK AO1
KO69 
32nm S 
151055Z AUTO 29005KT 10SM SCT034 SCT040 05/05 A3013 RMK A01
KAPC 
33nm S 
151054Z AUTO 29006KT 10SM CLR 05/03 A3011 RMK AO2 SLP187 T00500028
KSUU 
36nm SE 
151058Z AUTO 21008KT 10SM CLR 06/02 A3008 RMK AO2 SLP193 T00590018 $
KSMF 
36nm E 
151053Z 00000KT 10SM CLR 05/03 A3007 RMK AO2 SLP183 T00500028
KDVO 
37nm S 
151055Z AUTO 29008KT 10SM CLR 08/04 A3013 RMK AO2
KMYV 
43nm NE 
151053Z AUTO 00000KT 10SM CLR 04/02 A3008 RMK AO2 SLP188 T00390022
KSAC 
43nm E 
151053Z AUTO 00000KT 10SM CLR 04/03 A3008 RMK AO2 SLP187 T00440028
TAF
KSTS 
26nm SW 
150521Z 1506/1606 28007KT P6SM VCSH SCT030 BKN050 FM150800 31006KT P6SM FEW020 SCT040 FM151200 32004KT P6SM FEW015 TEMPO 1512/1516 1SM BR BKN005 FM151800 33008KT P6SM FEW040 FM160300 32005KT P6SM FEW030
NOTAMs
Click for the latest NOTAMs
NOTAMs are issued by the DoD/FAA and will open in a separate window not controlled by AirNav.

 

 
 

Would you like to see your business listed on this page?

 If your business provides an interesting product or service to pilots, flight crews, aircraft, or users of the Mysterious Valley Airport, you should consider listing it here.  To start the listing process, click on the button below
 
Add a business
 

Other Pages about Mysterious Valley Airport

Update a link
 
Copyright © AirNav, LLC. All rights reserved. Privacy Policy  Contact